Time;durP1;ratioP1;P1;durP2;ratioP2;P2;SDS_P1;SDS_P2;PMS_P1;PMS_P2;Temp;Humidity;BMP_temperature;BMP_pressure;BME280_temperature;BME280_humidity;BME280_pressure;Samples;Min_cycle;Max_cycle;Signal;HPM_P1;HPM_P2
2022/10/06 00:01:21;;;;;;;5.82;3.72;;;;;;;11.18;64.20;95860.16;4161313;28;20046;-58
2022/10/06 00:03:23;;;;;;;8.25;4.35;;;;;;;11.18;64.63;95864.59;4175778;28;20071;-56
2022/10/06 00:05:25;;;;;;;6.25;3.85;;;;;;;11.24;64.69;95861.44;4173811;28;20561;-59
2022/10/06 00:07:26;;;;;;;7.82;4.22;;;;;;;11.27;64.62;95863.78;4180079;28;20529;-60
2022/10/06 00:09:28;;;;;;;6.18;3.80;;;;;;;11.32;64.29;95869.47;4171711;28;20055;-57
2022/10/06 00:11:48;;;;;;;6.13;3.53;;;;;;;11.31;64.15;95864.34;4173230;28;20136;-58
2022/10/06 00:13:50;;;;;;;7.43;3.70;;;;;;;11.30;64.25;95862.69;4175812;28;20052;-60
2022/10/06 00:15:51;;;;;;;6.53;3.95;;;;;;;11.24;64.51;95866.69;4177989;28;20509;-58
2022/10/06 00:17:55;;;;;;;6.13;3.78;;;;;;;11.25;64.59;95865.72;4166491;28;20045;-59
2022/10/06 00:19:57;;;;;;;6.78;4.00;;;;;;;11.23;64.40;95860.59;4178372;28;20053;-58
2022/10/06 00:21:58;;;;;;;7.05;3.97;;;;;;;11.25;64.02;95858.69;4167372;28;20140;-59
2022/10/06 00:24:00;;;;;;;7.15;4.18;;;;;;;11.26;64.09;95857.69;4178424;28;20114;-57
2022/10/06 00:26:02;;;;;;;5.80;3.60;;;;;;;11.22;64.34;95853.69;4180223;28;20052;-58
2022/10/06 00:28:03;;;;;;;7.70;4.43;;;;;;;11.23;64.22;95855.38;4180601;28;20088;-58
2022/10/06 00:30:08;;;;;;;6.65;4.45;;;;;;;11.25;64.05;95850.00;4173998;28;20136;-58
2022/10/06 00:32:10;;;;;;;6.15;4.35;;;;;;;11.26;64.05;95851.63;4174111;28;20084;-57
2022/10/06 00:34:12;;;;;;;8.45;4.55;;;;;;;11.25;64.16;95850.00;4173174;28;20088;-59
2022/10/06 00:36:13;;;;;;;7.07;4.43;;;;;;;11.26;64.00;95849.00;4166661;28;20069;-60
2022/10/06 00:38:15;;;;;;;7.63;4.70;;;;;;;11.23;63.91;95847.50;4177271;28;20319;-58
2022/10/06 00:40:17;;;;;;;11.57;4.65;;;;;;;11.26;64.02;95843.75;4166535;28;20057;-60
2022/10/06 00:42:24;;;;;;;8.82;4.40;;;;;;;11.22;63.78;95837.13;4175476;28;20508;-59
2022/10/06 00:44:25;;;;;;;9.18;4.40;;;;;;;11.17;63.95;95839.34;4178324;28;20052;-57
2022/10/06 00:46:33;;;;;;;6.15;4.57;;;;;;;11.13;64.26;95840.56;4178355;28;20045;-57
2022/10/06 00:48:35;;;;;;;5.40;4.15;;;;;;;11.12;64.26;95836.28;4178764;28;20087;-59
2022/10/06 00:50:37;;;;;;;7.90;4.40;;;;;;;11.10;64.31;95832.94;4178538;28;20136;-60
2022/10/06 00:52:39;;;;;;;7.57;4.90;;;;;;;11.05;64.42;95822.88;4170271;28;20075;-58
2022/10/06 00:54:41;;;;;;;10.43;4.38;;;;;;;11.05;64.86;95831.56;4168769;28;20143;-59
2022/10/06 00:56:43;;;;;;;8.55;4.63;;;;;;;11.05;65.07;95825.50;4172618;28;20059;-58
2022/10/06 00:58:45;;;;;;;10.10;4.70;;;;;;;11.10;65.04;95825.09;4164235;28;20564;-57
2022/10/06 01:00:49;;;;;;;6.97;4.22;;;;;;;11.10;64.69;95822.47;4162044;28;20076;-57
2022/10/06 01:02:57;;;;;;;5.18;3.53;;;;;;;11.14;64.22;95818.59;4170299;28;20057;-59
2022/10/06 01:05:00;;;;;;;6.40;3.97;;;;;;;11.16;64.22;95820.13;4173796;28;20038;-59
2022/10/06 01:07:02;;;;;;;9.48;4.38;;;;;;;11.17;64.07;95811.31;4174818;28;20171;-60
2022/10/06 01:09:04;;;;;;;6.85;4.30;;;;;;;11.18;64.11;95809.50;4174479;28;20130;-59
2022/10/06 01:11:11;;;;;;;7.95;4.40;;;;;;;11.17;63.72;95805.25;4168127;28;20049;-58
2022/10/06 01:13:14;;;;;;;5.70;3.80;;;;;;;11.13;63.85;95804.69;4176814;28;20102;-60
2022/10/06 01:15:17;;;;;;;5.95;4.50;;;;;;;11.06;64.13;95808.81;4173309;28;20144;-59
2022/10/06 01:17:41;;;;;;;6.63;4.45;;;;;;;10.54;65.22;95798.44;4173147;28;20084;-59
2022/10/06 01:19:48;;;;;;;7.95;4.45;;;;;;;10.34;65.84;95800.13;4170840;28;20053;-57
2022/10/06 01:21:52;;;;;;;5.82;3.72;;;;;;;9.95;66.45;95799.06;4166568;28;20053;-57
2022/10/06 01:23:55;;;;;;;;;;;;;;;9.71;66.28;95807.16;4172175;28;20529;-59
2022/10/06 01:25:58;;;;;;;6.70;3.70;;;;;;;9.62;67.27;95803.53;4162871;28;19924;-58
2022/10/06 01:28:00;;;;;;;6.57;4.00;;;;;;;9.67;67.64;95801.34;4176172;28;20133;-59
2022/10/06 01:30:04;;;;;;;6.60;3.80;;;;;;;9.76;67.13;95797.94;4174076;28;20060;-56
2022/10/06 01:32:31;;;;;;;8.52;4.25;;;;;;;9.81;66.84;95795.81;4159945;28;20134;-58
2022/10/06 01:34:33;;;;;;;5.38;3.60;;;;;;;9.93;66.02;95793.13;4161534;28;20053;-59
2022/10/06 01:36:34;;;;;;;6.85;3.80;;;;;;;9.92;65.96;95794.91;4163382;28;20140;-59
2022/10/06 01:38:36;;;;;;;5.72;3.55;;;;;;;9.87;66.34;95786.59;4167420;28;20418;-58
2022/10/06 01:40:37;;;;;;;6.10;3.53;;;;;;;9.84;66.27;95798.16;4177164;28;20147;-60
2022/10/06 01:42:39;;;;;;;6.28;3.42;;;;;;;9.82;66.74;95799.25;4173887;28;20132;-57
2022/10/06 01:44:41;;;;;;;7.57;3.80;;;;;;;9.85;66.79;95798.97;4163184;28;20052;-58
2022/10/06 01:46:42;;;;;;;4.75;3.47;;;;;;;9.78;66.47;95800.44;4171490;28;20148;-57
2022/10/06 01:48:44;;;;;;;4.70;3.33;;;;;;;9.75;66.64;95801.53;4178177;28;20075;-59
2022/10/06 01:50:46;;;;;;;6.22;3.40;;;;;;;9.82;66.70;95797.44;4176573;28;20137;-58
2022/10/06 01:52:47;;;;;;;5.72;3.53;;;;;;;9.87;66.23;95796.25;4179174;28;20057;-59
2022/10/06 01:54:49;;;;;;;6.22;3.97;;;;;;;9.98;66.50;95798.78;4179284;28;20136;-56
2022/10/06 01:56:51;;;;;;;6.95;3.83;;;;;;;10.05;66.10;95802.56;4178950;28;20140;-58
2022/10/06 01:58:53;;;;;;;4.55;3.20;;;;;;;10.12;65.75;95803.69;4164328;28;20574;-55
2022/10/06 02:00:54;;;;;;;6.32;3.25;;;;;;;10.19;65.36;95801.41;4171767;28;20160;-58
2022/10/06 02:02:56;;;;;;;9.40;3.58;;;;;;;10.22;64.76;95796.75;4171512;28;20456;-56
2022/10/06 02:04:58;;;;;;;5.45;3.35;;;;;;;10.23;65.22;95793.16;4177957;28;20128;-58
2022/10/06 02:07:00;;;;;;;7.25;4.18;;;;;;;10.31;64.94;95794.34;4163072;28;20061;-56
2022/10/06 02:09:02;;;;;;;8.48;3.80;;;;;;;10.32;64.85;95794.19;4162912;28;20092;-59
2022/10/06 02:11:06;;;;;;;5.93;3.72;;;;;;;10.30;64.96;95795.28;4166143;28;20080;-59
2022/10/06 02:13:08;;;;;;;4.88;3.42;;;;;;;10.29;64.82;95796.22;4165758;28;20076;-59
2022/10/06 02:15:10;;;;;;;7.28;3.92;;;;;;;10.30;64.82;95797.91;4170749;28;20083;-58
2022/10/06 02:17:12;;;;;;;6.30;3.20;;;;;;;10.32;64.09;95793.38;4165429;28;20053;-58
2022/10/06 02:19:13;;;;;;;6.00;3.20;;;;;;;10.31;64.68;95794.34;4163603;28;20045;-59
2022/10/06 02:21:20;;;;;;;5.38;3.65;;;;;;;10.32;64.67;95801.22;4175757;28;20088;-59
2022/10/06 02:23:22;;;;;;;5.60;3.50;;;;;;;10.34;64.59;95794.06;4168805;28;20127;-65
2022/10/06 02:25:23;;;;;;;5.22;3.63;;;;;;;10.34;64.88;95791.44;4178402;28;20084;-66
2022/10/06 02:27:25;;;;;;;5.15;3.25;;;;;;;10.33;64.29;95792.41;4178811;28;20101;-64
2022/10/06 02:29:26;;;;;;;6.15;3.35;;;;;;;10.34;64.62;95794.06;4175424;28;20587;-65
2022/10/06 02:31:28;;;;;;;7.00;3.60;;;;;;;10.36;64.29;95794.75;4160591;28;20550;-63
2022/10/06 02:33:30;;;;;;;6.57;3.53;;;;;;;10.32;64.65;95793.38;4172318;28;20307;-65
2022/10/06 02:35:32;;;;;;;5.40;3.60;;;;;;;10.30;64.57;95792.66;4165530;28;20045;-65
2022/10/06 02:37:33;;;;;;;4.82;3.30;;;;;;;10.28;63.91;95787.50;4177451;28;21351;-66
2022/10/06 02:39:35;;;;;;;4.85;3.47;;;;;;;10.30;64.37;95788.25;4178492;28;20080;-65
2022/10/06 02:41:37;;;;;;;5.85;4.00;;;;;;;10.34;64.34;95791.44;4168912;28;20049;-65
2022/10/06 02:43:38;;;;;;;5.65;4.13;;;;;;;10.33;64.66;95795.03;4175057;28;20626;-65
2022/10/06 02:45:42;;;;;;;9.07;3.80;;;;;;;10.34;64.45;95794.88;4173097;28;20092;-65
2022/10/06 02:47:43;;;;;;;8.07;4.25;;;;;;;10.35;64.27;95803.59;4168447;28;20084;-66
2022/10/06 02:49:45;;;;;;;7.78;3.88;;;;;;;10.32;64.68;95801.22;4178080;28;20136;-65
2022/10/06 02:51:47;;;;;;;6.15;3.83;;;;;;;10.29;64.62;95796.22;4177528;28;20056;-65
2022/10/06 02:53:49;;;;;;;7.45;3.95;;;;;;;10.14;64.95;95803.59;4163947;28;20085;-64
2022/10/06 02:55:58;;;;;;;9.70;4.50;;;;;;;9.99;65.52;95795.22;4172622;28;20124;-63
2022/10/06 02:57:59;;;;;;;8.35;4.20;;;;;;;9.94;66.27;95808.69;4162703;28;20516;-64
2022/10/06 03:00:02;;;;;;;6.00;4.28;;;;;;;9.95;65.89;95809.53;4173211;28;20474;-63
2022/10/06 03:02:04;;;;;;;9.70;5.63;;;;;;;10.02;65.88;95802.81;4163562;28;20075;-64
2022/10/06 03:04:06;;;;;;;10.95;5.93;;;;;;;10.00;66.00;95796.88;4170792;28;20673;-63
2022/10/06 03:06:30;;;;;;;10.82;5.65;;;;;;;10.07;65.47;95807.66;4172046;28;20136;-63
2022/10/06 03:08:32;;;;;;;11.00;6.35;;;;;;;10.12;65.40;95806.31;4174082;28;20072;-65
2022/10/06 03:10:34;;;;;;;10.07;6.05;;;;;;;10.12;65.61;95803.69;4168736;28;20191;-66
2022/10/06 03:12:36;;;;;;;7.68;6.03;;;;;;;10.11;65.70;95803.81;4171322;28;20045;-64
2022/10/06 03:14:37;;;;;;;9.98;6.05;;;;;;;10.10;65.33;95803.00;4174627;28;20056;-64
2022/10/06 03:16:41;;;;;;;9.60;6.28;;;;;;;10.11;66.07;95807.28;4172456;28;20494;-64
2022/10/06 03:18:48;;;;;;;11.60;7.45;;;;;;;10.09;66.03;95800.50;4163738;28;20049;-65
2022/10/06 03:20:50;;;;;;;9.50;6.78;;;;;;;10.13;65.67;95804.53;4177166;28;20088;-64
2022/10/06 03:22:53;;;;;;;11.55;7.00;;;;;;;10.13;65.81;95792.28;4164814;28;20107;-65
2022/10/06 03:24:54;;;;;;;10.80;7.20;;;;;;;10.15;65.59;95790.38;4177996;28;20085;-63
2022/10/06 03:26:57;;;;;;;10.52;6.68;;;;;;;10.16;66.15;95799.88;4174232;28;20137;-66
2022/10/06 03:29:01;;;;;;;16.17;8.25;;;;;;;10.17;65.50;95793.66;4177854;28;20056;-65
2022/10/06 03:31:04;;;;;;;13.30;6.72;;;;;;;10.16;65.52;95792.00;4178693;28;20140;-64
2022/10/06 03:33:06;;;;;;;13.70;7.53;;;;;;;10.11;66.16;95788.13;4183490;28;20051;-66
2022/10/06 03:35:08;;;;;;;13.30;7.82;;;;;;;10.08;66.33;95799.69;4173176;28;20129;-65
2022/10/06 03:37:10;;;;;;;14.48;7.40;;;;;;;10.07;66.12;95790.19;4179861;28;20063;-64
2022/10/06 03:39:12;;;;;;;18.00;9.43;;;;;;;9.77;66.27;95796.19;4179778;28;20486;-64
2022/10/06 03:41:16;;;;;;;14.77;9.20;;;;;;;9.23;68.29;95796.16;4167192;28;20120;-65
2022/10/06 03:43:17;;;;;;;21.65;10.32;;;;;;;8.89;69.25;95794.59;4167111;28;20107;-63
2022/10/06 03:45:19;;;;;;;17.55;9.35;;;;;;;8.79;70.07;95794.47;4181339;28;20049;-65
2022/10/06 03:47:21;;;;;;;13.25;8.80;;;;;;;8.59;70.50;95794.28;4176914;28;20563;-65
2022/10/06 03:49:22;;;;;;;12.10;8.13;;;;;;;8.58;70.67;95787.41;4166735;28;20103;-65
2022/10/06 03:51:27;;;;;;;15.95;9.25;;;;;;;8.63;70.73;95783.59;4179915;28;20471;-64
2022/10/06 03:53:29;;;;;;;17.60;10.65;;;;;;;8.69;70.50;95785.69;4167302;28;20057;-64
2022/10/06 03:55:31;;;;;;;14.50;10.05;;;;;;;8.55;71.37;95790.22;4174089;28;20041;-61
2022/10/06 03:57:32;;;;;;;21.00;9.75;;;;;;;8.65;71.50;95784.28;4183436;28;20136;-58
2022/10/06 03:59:34;;;;;;;20.08;11.18;;;;;;;8.69;71.35;95788.31;4182062;28;20064;-57
2022/10/06 04:01:38;;;;;;;16.83;10.32;;;;;;;8.43;71.73;95787.75;4176131;28;20053;-58
2022/10/06 04:03:41;;;;;;;17.50;10.55;;;;;;;8.38;72.90;95791.50;4167243;28;20053;-57
2022/10/06 04:05:52;;;;;;;17.90;10.75;;;;;;;8.32;72.41;95793.75;4178580;28;20051;-59
2022/10/06 04:07:53;;;;;;;22.83;11.02;;;;;;;8.38;72.67;95790.69;4180386;28;20049;-54
2022/10/06 04:09:55;;;;;;;29.13;11.63;;;;;;;8.50;72.31;95781.94;4173605;28;20053;-59
2022/10/06 04:11:56;;;;;;;18.95;10.35;;;;;;;8.64;71.96;95791.28;4182632;28;20080;-60
2022/10/06 04:14:03;;;;;;;17.77;11.07;;;;;;;8.55;71.34;95792.84;4170957;28;20141;-60
2022/10/06 04:16:19;;;;;;;16.83;10.15;;;;;;;7.86;72.53;95790.28;4167246;28;20132;-61
2022/10/06 04:18:21;;;;;;;14.27;9.18;;;;;;;7.58;73.97;95794.13;4166991;28;20088;-59
2022/10/06 04:20:23;;;;;;;13.60;8.30;;;;;;;7.28;74.77;95803.25;4180178;28;20512;-57
2022/10/06 04:22:24;;;;;;;13.93;9.25;;;;;;;7.14;75.66;95795.59;4183349;28;20052;-58
2022/10/06 04:24:26;;;;;;;14.27;8.93;;;;;;;7.17;76.24;95790.16;4182762;28;20154;-58
2022/10/06 04:26:31;;;;;;;15.55;8.70;;;;;;;7.31;75.94;95791.75;4183041;28;20493;-57
2022/10/06 04:28:32;;;;;;;13.13;8.68;;;;;;;7.38;75.28;95798.22;4183173;28;20148;-58
2022/10/06 04:30:35;;;;;;;14.10;9.63;;;;;;;7.59;75.79;95798.38;4181548;28;20065;-60
2022/10/06 04:32:36;;;;;;;15.23;8.60;;;;;;;7.82;74.14;95794.06;4181571;28;20128;-60
2022/10/06 04:34:38;;;;;;;19.08;9.50;;;;;;;7.92;73.10;95795.03;4182995;28;20132;-55
2022/10/06 04:36:41;;;;;;;15.13;8.00;;;;;;;7.62;73.91;95794.75;4169681;28;20046;-58
2022/10/06 04:38:42;;;;;;;16.40;8.77;;;;;;;7.32;75.11;95807.28;4179530;28;20091;-61
2022/10/06 04:40:44;;;;;;;15.82;9.32;;;;;;;7.16;75.55;95804.13;4182587;28;20080;-58
2022/10/06 04:42:46;;;;;;;13.38;8.35;;;;;;;6.91;76.45;95807.69;4171833;28;20521;-56
2022/10/06 04:44:48;;;;;;;11.23;7.57;;;;;;;7.05;76.72;95804.06;4175035;28;20056;-57
2022/10/06 04:46:50;;;;;;;20.00;8.15;;;;;;;7.05;76.04;95811.88;4178619;28;20722;-57
2022/10/06 04:48:52;;;;;;;14.93;8.80;;;;;;;7.26;76.30;95799.09;4174882;28;20068;-57
2022/10/06 04:50:59;;;;;;;15.68;9.52;;;;;;;7.50;75.79;95797.28;4164062;28;20058;-66
2022/10/06 04:53:01;;;;;;;21.02;10.48;;;;;;;7.79;74.76;95802.94;4175903;28;20135;-65
2022/10/06 04:55:03;;;;;;;16.38;9.93;;;;;;;8.04;72.83;95808.91;4179100;28;20132;-66
2022/10/06 04:57:04;;;;;;;13.65;9.60;;;;;;;8.26;72.29;95812.50;4180053;28;20151;-64
2022/10/06 04:59:06;;;;;;;15.10;10.80;;;;;;;8.42;71.64;95807.81;4170098;28;20598;-64
2022/10/06 05:01:32;;;;;;;17.85;10.57;;;;;;;8.59;70.73;95809.13;4175787;28;20072;-64
2022/10/06 05:03:33;;;;;;;16.55;10.43;;;;;;;8.68;70.47;95812.78;4179681;28;20049;-64
2022/10/06 05:05:35;;;;;;;18.02;9.98;;;;;;;8.76;70.51;95815.63;4169685;28;20060;-65
2022/10/06 05:07:36;;;;;;;18.77;10.43;;;;;;;8.87;69.93;95813.00;4177544;28;20052;-64
2022/10/06 05:09:38;;;;;;;35.17;10.48;;;;;;;9.01;69.50;95820.59;4176115;28;20049;-67
2022/10/06 05:11:40;;;;;;;14.23;9.73;;;;;;;9.08;68.88;95820.09;4170848;28;20144;-65
2022/10/06 05:13:42;;;;;;;14.68;9.00;;;;;;;9.15;68.76;95822.09;4176740;28;20514;-67
2022/10/06 05:15:54;;;;;;;16.88;10.13;;;;;;;9.23;68.46;95824.94;4167399;28;20045;-65
2022/10/06 05:17:56;;;;;;;16.65;9.48;;;;;;;9.35;68.83;95819.66;4171367;28;20089;-65
2022/10/06 05:19:57;;;;;;;21.50;10.23;;;;;;;9.47;68.13;95821.28;4175731;28;20060;-67
2022/10/06 05:21:59;;;;;;;18.27;10.38;;;;;;;9.57;67.74;95818.75;4179722;28;20143;-66
2022/10/06 05:24:02;;;;;;;19.10;9.43;;;;;;;9.61;66.88;95812.31;4177420;28;20410;-65
2022/10/06 05:26:04;;;;;;;14.47;9.73;;;;;;;9.67;67.08;95814.44;4178572;28;20135;-60
2022/10/06 05:28:06;;;;;;;18.63;9.30;;;;;;;9.80;67.07;95809.00;4174449;28;20080;-58
2022/10/06 05:30:08;;;;;;;22.05;10.23;;;;;;;9.93;66.82;95807.03;4162729;28;20049;-61
2022/10/06 05:32:10;;;;;;;18.17;9.70;;;;;;;10.06;65.61;95806.84;4175231;28;20091;-59
2022/10/06 05:34:12;;;;;;;21.30;10.05;;;;;;;10.18;65.90;95805.81;4179086;28;20152;-60
2022/10/06 05:36:18;;;;;;;18.98;10.07;;;;;;;10.25;65.42;95806.94;4179813;28;20043;-59
2022/10/06 05:38:20;;;;;;;14.43;9.52;;;;;;;10.36;64.99;95808.69;4170208;28;20073;-60
2022/10/06 05:40:23;;;;;;;28.05;14.35;;;;;;;10.47;65.08;95806.94;4175917;28;20080;-59
2022/10/06 05:42:25;;;;;;;22.50;11.13;;;;;;;10.59;64.89;95806.72;4166270;28;20053;-60
2022/10/06 05:44:30;;;;;;;16.80;9.85;;;;;;;10.71;64.62;95802.22;4179517;28;20049;-60
2022/10/06 05:46:32;;;;;;;19.73;9.32;;;;;;;10.81;64.11;95802.25;4164482;28;20049;-58
2022/10/06 05:48:34;;;;;;;15.60;9.52;;;;;;;10.81;63.80;95810.13;4167845;28;20577;-58
2022/10/06 05:50:36;;;;;;;14.98;8.68;;;;;;;10.86;63.82;95811.38;4168975;28;20077;-55
2022/10/06 05:52:37;;;;;;;19.08;9.65;;;;;;;10.94;63.95;95808.06;4179108;28;20128;-60
2022/10/06 05:54:39;;;;;;;19.42;8.77;;;;;;;11.00;63.79;95815.41;4178998;28;20112;-60
2022/10/06 05:56:41;;;;;;;19.98;9.57;;;;;;;11.08;63.56;95809.50;4178655;28;20087;-60
2022/10/06 05:58:44;;;;;;;15.85;9.10;;;;;;;11.15;63.49;95818.47;4175668;28;20055;-58
2022/10/06 06:00:46;;;;;;;16.13;9.93;;;;;;;11.11;63.14;95829.38;4177654;28;20140;-59
2022/10/06 06:02:47;;;;;;;13.45;8.00;;;;;;;10.97;63.26;95834.03;4175653;28;20146;-59
2022/10/06 06:04:49;;;;;;;14.02;8.93;;;;;;;10.97;63.57;95834.03;4176720;28;20040;-57
2022/10/06 06:06:51;;;;;;;20.73;9.15;;;;;;;10.97;63.54;95833.19;4177541;28;20556;-59
2022/10/06 06:08:57;;;;;;;21.73;9.77;;;;;;;11.02;63.64;95825.78;4176947;28;20084;-58
2022/10/06 06:11:08;;;;;;;15.68;8.32;;;;;;;11.13;63.51;95830.91;4178626;28;20464;-59
2022/10/06 06:13:10;;;;;;;13.77;8.82;;;;;;;11.24;63.18;95825.53;4173501;28;20466;-59
2022/10/06 06:17:32;;;;;;;18.70;9.02;;;;;;;11.46;62.20;95821.84;4162739;28;20077;-58
2022/10/06 06:19:34;;;;;;;14.30;8.73;;;;;;;11.52;61.88;95819.63;4170533;28;20053;-62
2022/10/06 06:21:36;;;;;;;12.52;8.35;;;;;;;11.61;61.74;95818.81;4178466;28;20136;-62
2022/10/06 06:23:40;;;;;;;16.70;8.70;;;;;;;11.67;61.92;95821.69;4178494;28;20152;-60
2022/10/06 06:25:43;;;;;;;12.35;8.63;;;;;;;11.78;61.30;95820.72;4178534;28;20135;-57
2022/10/06 06:27:44;;;;;;;17.02;8.57;;;;;;;11.70;61.50;95825.84;4178314;28;20079;-59
2022/10/06 06:29:46;;;;;;;15.70;8.25;;;;;;;11.59;61.61;95833.84;4172948;28;20136;-58
2022/10/06 06:31:49;;;;;;;16.08;9.02;;;;;;;11.33;62.38;95834.38;4169917;28;20136;-56
2022/10/06 06:33:55;;;;;;;15.65;8.40;;;;;;;11.24;62.74;95832.56;4164547;28;20065;-59
2022/10/06 06:36:02;;;;;;;14.07;8.35;;;;;;;11.13;63.10;95835.31;4162577;28;20083;-58
2022/10/06 06:38:10;;;;;;;18.10;8.85;;;;;;;10.93;63.47;95837.91;4162185;28;20061;-60
2022/10/06 06:40:12;;;;;;;13.07;7.90;;;;;;;10.88;63.61;95840.06;4162020;28;20053;-59
2022/10/06 06:42:13;;;;;;;14.68;9.10;;;;;;;11.02;63.81;95831.84;4177684;28;20049;-58
2022/10/06 06:44:16;;;;;;;15.07;9.18;;;;;;;11.22;63.57;95837.13;4170916;28;20077;-59
2022/10/06 06:46:22;;;;;;;16.73;9.65;;;;;;;11.43;62.79;95832.59;4172075;28;20045;-60
2022/10/06 06:48:24;;;;;;;14.27;8.60;;;;;;;11.37;62.66;95833.16;4176796;28;20053;-58
2022/10/06 06:50:27;;;;;;;15.52;8.18;;;;;;;11.46;62.59;95828.88;4172744;28;20041;-59
2022/10/06 06:52:30;;;;;;;20.63;9.38;;;;;;;11.63;62.34;95827.38;4171142;28;20045;-61
2022/10/06 06:54:31;;;;;;;12.43;8.73;;;;;;;11.86;62.37;95827.94;4166463;28;20138;-61
2022/10/06 06:56:33;;;;;;;20.00;8.45;;;;;;;12.03;61.85;95826.44;4165127;28;20059;-61
2022/10/06 06:58:35;;;;;;;11.60;8.30;;;;;;;12.13;61.00;95821.16;4177182;28;20052;-56
2022/10/06 07:00:37;;;;;;;12.57;8.63;;;;;;;12.17;60.80;95812.84;4167543;28;20061;-58
2022/10/06 07:02:39;;;;;;;16.13;8.90;;;;;;;12.23;60.02;95820.16;4175280;28;20143;-59
2022/10/06 07:04:40;;;;;;;17.48;8.88;;;;;;;12.39;60.04;95816.09;4177887;28;20168;-59
2022/10/06 07:06:52;;;;;;;14.90;7.88;;;;;;;12.53;59.57;95812.19;4175424;28;20643;-59
2022/10/06 07:08:54;;;;;;;13.02;8.32;;;;;;;12.64;58.66;95818.09;4177186;28;20619;-59
2022/10/06 07:10:56;;;;;;;20.67;10.10;;;;;;;12.75;58.82;95816.25;4176505;28;20056;-61
2022/10/06 07:12:58;;;;;;;19.27;9.15;;;;;;;12.84;59.08;95818.00;4176966;28;20147;-58
2022/10/06 07:26:37;;;;;;;15.20;9.32;;;;;;;11.90;62.54;95816.22;4176684;28;20107;-65
2022/10/06 07:28:41;;;;;;;19.40;9.00;;;;;;;12.25;61.69;95809.50;4178347;28;20053;-66
2022/10/06 07:30:43;;;;;;;15.57;8.85;;;;;;;12.27;60.85;95805.78;4163004;28;20166;-65
2022/10/06 07:32:46;;;;;;;12.90;8.57;;;;;;;12.42;60.83;95803.50;4174191;28;20128;-66
2022/10/06 07:34:48;;;;;;;18.27;9.43;;;;;;;12.63;60.52;95803.31;4169384;28;20049;-66
2022/10/06 07:36:52;;;;;;;14.70;9.65;;;;;;;12.89;59.79;95797.38;4166710;28;20046;-66
2022/10/06 07:38:54;;;;;;;33.08;16.67;;;;;;;13.09;58.60;95795.47;4176263;28;20135;-66
2022/10/06 07:40:57;;;;;;;20.50;8.63;;;;;;;13.03;58.39;95796.88;4177816;28;20094;-65
2022/10/06 07:43:18;;;;;;;16.55;9.77;;;;;;;13.10;58.96;95797.13;4165192;28;20855;-65
2022/10/06 07:45:37;;;;;;;13.35;8.68;;;;;;;12.99;58.64;95794.69;4163185;28;20126;-67
2022/10/06 07:47:39;;;;;;;11.25;8.20;;;;;;;12.93;58.83;95804.00;4177953;28;20045;-66
2022/10/06 07:49:41;;;;;;;18.98;8.95;;;;;;;12.64;59.57;95806.75;4176822;28;20117;-66
2022/10/06 07:51:43;;;;;;;14.20;8.68;;;;;;;12.71;59.24;95805.19;4177433;28;20573;-67
2022/10/06 07:53:49;;;;;;;13.10;8.68;;;;;;;12.82;58.88;95798.91;4178217;28;20112;-67
2022/10/06 07:55:51;;;;;;;15.88;9.52;;;;;;;12.99;58.51;95802.56;4177784;28;20045;-64
2022/10/06 07:57:53;;;;;;;17.25;9.75;;;;;;;13.18;57.84;95806.91;4175666;28;20053;-65
2022/10/06 07:59:54;;;;;;;19.90;11.40;;;;;;;13.38;57.93;95807.63;4161648;28;20548;-64
2022/10/06 08:02:03;;;;;;;16.45;9.82;;;;;;;13.49;57.46;95805.63;4167557;28;20049;-58
2022/10/06 08:04:05;;;;;;;19.58;8.90;;;;;;;13.61;57.76;95802.75;4170780;28;20547;-60
2022/10/06 08:06:12;;;;;;;14.50;9.63;;;;;;;13.82;57.36;95807.72;4175336;28;20478;-59
2022/10/06 08:08:15;;;;;;;23.95;10.07;;;;;;;14.09;57.00;95806.78;4160197;28;20053;-62
2022/10/06 08:10:17;;;;;;;21.47;10.33;;;;;;;14.31;56.26;95803.66;4160804;28;20049;-58
2022/10/06 08:12:36;;;;;;;25.52;12.02;;;;;;;14.24;55.06;95804.41;4174015;28;20106;-60
2022/10/06 08:14:38;;;;;;;24.83;12.18;;;;;;;13.91;55.98;95802.34;4166225;28;20057;-60
2022/10/06 08:16:40;;;;;;;19.25;12.55;;;;;;;13.83;56.05;95804.94;4173755;28;20049;-61
2022/10/06 08:18:43;;;;;;;15.85;11.30;;;;;;;13.87;56.03;95811.56;4164739;28;20061;-61
2022/10/06 08:20:47;;;;;;;23.58;12.63;;;;;;;13.42;57.28;95811.63;4179475;28;20053;-60
2022/10/06 08:22:49;;;;;;;20.55;12.90;;;;;;;13.42;56.91;95811.63;4180639;28;20132;-59
2022/10/06 08:24:51;;;;;;;21.23;11.68;;;;;;;13.33;57.23;95805.44;4175961;28;20084;-60
2022/10/06 08:27:08;;;;;;;21.15;11.68;;;;;;;13.35;57.27;95800.88;4174754;28;20473;-62
2022/10/06 08:29:10;;;;;;;19.25;11.65;;;;;;;13.65;56.68;95791.78;4179606;28;20088;-58
2022/10/06 08:31:14;;;;;;;24.00;12.30;;;;;;;13.67;56.56;95789.81;4166632;28;20087;-58
2022/10/06 08:33:16;;;;;;;17.75;11.15;;;;;;;13.74;56.54;95795.31;4180693;28;20568;-61
2022/10/06 08:35:23;;;;;;;17.77;10.90;;;;;;;13.88;55.50;95800.03;4171975;28;20517;-59
2022/10/06 08:37:25;;;;;;;17.20;10.77;;;;;;;13.78;55.58;95796.66;4179040;28;20084;-59
2022/10/06 08:39:29;;;;;;;18.70;11.97;;;;;;;13.64;55.98;95787.50;4179546;28;20044;-60
2022/10/06 08:41:31;;;;;;;;;;;;;;;13.92;56.05;95797.94;4180824;28;20052;-59
2022/10/06 08:43:33;;;;;;;16.48;11.27;;;;;;;14.08;55.23;95786.69;4167046;28;19968;-59
2022/10/06 08:45:42;;;;;;;18.67;10.57;;;;;;;14.25;54.80;95791.06;4177797;28;20057;-60
2022/10/06 08:47:58;;;;;;;16.42;9.90;;;;;;;14.62;54.08;95779.44;4179848;28;20075;-61
2022/10/06 08:50:03;;;;;;;14.55;9.52;;;;;;;14.98;53.48;95775.81;4177028;28;20085;-60
2022/10/06 08:52:35;;;;;;;19.08;10.05;;;;;;;15.29;52.36;95779.53;4168468;28;20127;-61
2022/10/06 08:54:57;;;;;;;15.35;9.68;;;;;;;15.61;51.98;95771.81;4180117;28;20088;-60
2022/10/06 08:57:04;;;;;;;17.42;11.10;;;;;;;15.54;51.40;95777.75;4169289;28;20067;-55
2022/10/06 08:59:07;;;;;;;16.02;10.77;;;;;;;15.45;51.29;95784.03;4178540;28;20135;-60
2022/10/06 09:01:24;;;;;;;15.68;10.75;;;;;;;15.41;51.32;95777.41;4175668;28;20132;-63
2022/10/06 09:03:27;;;;;;;16.77;10.82;;;;;;;15.66;50.83;95777.44;4177888;28;20059;-62
2022/10/06 09:05:30;;;;;;;21.05;10.40;;;;;;;15.77;50.25;95780.63;4173509;28;20081;-60
2022/10/06 09:07:52;;;;;;;15.85;9.77;;;;;;;15.80;50.40;95779.47;4179803;28;20055;-59
2022/10/06 09:10:39;;;;;;;15.80;9.35;;;;;;;15.94;50.07;95775.34;4164635;28;20053;-61
2022/10/06 09:12:44;;;;;;;14.50;9.60;;;;;;;15.93;49.64;95777.13;4177547;28;20465;-59
2022/10/06 09:14:50;;;;;;;17.67;9.98;;;;;;;16.03;49.63;95771.69;4174564;28;20493;-58
2022/10/06 09:16:59;;;;;;;16.33;9.93;;;;;;;16.27;49.64;95773.47;4171206;28;20045;-61
2022/10/06 09:19:17;;;;;;;15.30;9.77;;;;;;;16.55;49.34;95775.72;4165254;28;20484;-59
2022/10/06 09:21:44;;;;;;;17.15;10.02;;;;;;;16.64;48.06;95774.72;4165665;28;20053;-59
2022/10/06 09:23:52;;;;;;;15.80;9.90;;;;;;;16.61;48.00;95767.13;4179935;28;20055;-60
2022/10/06 09:25:56;;;;;;;17.08;10.02;;;;;;;16.57;47.98;95771.09;4178958;28;20197;-60
2022/10/06 09:28:00;;;;;;;14.20;9.38;;;;;;;15.89;49.55;95770.53;4163315;28;20682;-61
2022/10/06 09:30:03;;;;;;;13.40;9.98;;;;;;;16.07;49.54;95764.28;4169572;28;20049;-62
2022/10/06 09:32:05;;;;;;;18.30;10.32;;;;;;;16.41;49.17;95758.72;4178867;28;20048;-60
2022/10/06 09:34:16;;;;;;;19.65;10.45;;;;;;;16.60;48.54;95765.47;4177361;28;20076;-61
2022/10/06 09:36:18;;;;;;;22.92;10.73;;;;;;;16.89;48.39;95759.59;4163182;28;20140;-58
2022/10/06 09:38:21;;;;;;;16.90;9.98;;;;;;;17.17;47.93;95756.50;4172816;28;20047;-61
2022/10/06 09:40:50;;;;;;;16.45;10.38;;;;;;;17.42;47.34;95743.91;4177300;28;20146;-62
2022/10/06 09:42:52;;;;;;;16.55;9.65;;;;;;;17.36;46.45;95744.63;4162022;28;20434;-61
2022/10/06 09:45:06;;;;;;;19.40;10.50;;;;;;;17.52;46.79;95749.00;4175827;28;20053;-60
2022/10/06 09:47:34;;;;;;;17.08;9.70;;;;;;;17.64;46.69;95742.28;4164223;28;20048;-59
2022/10/06 09:49:36;;;;;;;14.52;8.35;;;;;;;17.72;46.31;95741.38;4166638;28;20072;-61
2022/10/06 09:51:38;;;;;;;13.38;8.75;;;;;;;17.79;46.12;95750.28;4174816;28;20052;-58
2022/10/06 09:54:02;;;;;;;12.73;8.50;;;;;;;17.88;45.42;95743.13;4173575;28;20053;-61
2022/10/06 09:56:10;;;;;;;14.52;9.70;;;;;;;18.06;45.39;95738.31;4174185;28;20604;-61